Time;durP1;ratioP1;P1;durP2;ratioP2;P2;SDS_P1;SDS_P2;PMS_P1;PMS_P2;Temp;Humidity;BMP_temperature;BMP_pressure;BME280_temperature;BME280_humidity;BME280_pressure;Samples;Min_cycle;Max_cycle;Signal;HPM_P1;HPM_P2
2023/01/24 00:01:43;;;;;;;33.80;15.65;;;2.90;99.90;;;;;;5013532;28;20037;-66
2023/01/24 00:04:08;;;;;;;28.85;15.32;;;2.90;99.90;;;;;;5025526;28;20042;-66
2023/01/24 00:06:34;;;;;;;32.30;15.80;;;2.90;99.90;;;;;;5024312;28;20034;-67
2023/01/24 00:08:59;;;;;;;28.20;14.30;;;2.80;99.90;;;;;;5026029;28;20049;-66
2023/01/24 00:11:25;;;;;;;33.22;14.82;;;2.80;99.90;;;;;;5028109;28;20041;-67
2023/01/24 00:13:51;;;;;;;29.50;14.68;;;2.80;99.90;;;;;;5029302;28;20068;-66
2023/01/24 00:16:19;;;;;;;32.63;15.48;;;2.80;99.90;;;;;;5023572;28;20034;-67
2023/01/24 00:18:46;;;;;;;32.88;14.82;;;2.80;99.90;;;;;;5029000;28;20060;-66
2023/01/24 00:21:14;;;;;;;33.58;15.57;;;2.80;99.90;;;;;;5033224;28;20046;-66
2023/01/24 00:23:42;;;;;;;27.38;14.10;;;2.80;99.90;;;;;;5019113;28;20120;-67
2023/01/24 00:26:08;;;;;;;37.92;16.73;;;2.80;99.90;;;;;;5018827;28;20047;-67
2023/01/24 00:28:34;;;;;;;33.30;15.18;;;2.80;99.90;;;;;;5028517;28;20037;-67
2023/01/24 00:31:00;;;;;;;33.90;15.80;;;2.80;99.90;;;;;;5027423;28;20502;-67
2023/01/24 00:33:26;;;;;;;33.80;15.48;;;2.70;99.90;;;;;;5018407;28;20033;-66
2023/01/24 00:35:52;;;;;;;33.47;15.40;;;2.80;99.90;;;;;;5017452;28;20083;-66
2023/01/24 00:38:19;;;;;;;34.42;16.65;;;2.80;99.90;;;;;;4996399;28;20045;-67
2023/01/24 00:40:44;;;;;;;32.05;15.13;;;2.80;99.90;;;;;;5031891;28;20092;-67
2023/01/24 00:43:10;;;;;;;36.25;16.92;;;2.70;99.90;;;;;;5034716;28;20469;-66
2023/01/24 00:45:36;;;;;;;36.50;16.48;;;2.70;99.90;;;;;;5031901;28;20080;-66
2023/01/24 00:48:03;;;;;;;41.83;17.23;;;2.70;99.90;;;;;;5031093;28;20033;-67
2023/01/24 00:50:29;;;;;;;34.05;16.92;;;2.70;99.90;;;;;;5032710;28;20049;-66
2023/01/24 00:52:55;;;;;;;39.35;16.73;;;2.70;99.90;;;;;;5033185;28;20049;-66
2023/01/24 00:55:20;;;;;;;33.67;16.98;;;2.70;99.90;;;;;;5032120;28;20041;-66
2023/01/24 00:57:46;;;;;;;36.78;16.77;;;2.80;99.90;;;;;;5019925;28;20048;-67
2023/01/24 01:00:12;;;;;;;33.45;16.58;;;2.70;99.90;;;;;;5025690;28;20040;-67
2023/01/24 01:02:38;;;;;;;32.35;16.75;;;2.80;99.90;;;;;;5031624;28;20460;-66
2023/01/24 01:05:04;;;;;;;37.35;17.27;;;2.70;99.90;;;;;;5025243;28;20057;-67
2023/01/24 01:07:30;;;;;;;37.60;16.48;;;2.80;99.90;;;;;;5033331;28;20048;-66
2023/01/24 01:09:55;;;;;;;37.70;17.30;;;2.70;99.90;;;;;;5022623;28;20610;-66
2023/01/24 01:12:21;;;;;;;36.67;17.40;;;2.80;99.90;;;;;;5028284;28;20037;-66
2023/01/24 01:14:46;;;;;;;40.67;17.48;;;2.70;99.90;;;;;;5028845;28;20132;-66
2023/01/24 01:17:12;;;;;;;35.92;16.58;;;2.80;99.90;;;;;;5028861;28;20045;-66
2023/01/24 01:19:37;;;;;;;35.97;16.90;;;2.80;99.90;;;;;;5025777;28;20041;-66
2023/01/24 01:22:03;;;;;;;39.67;17.35;;;2.80;99.90;;;;;;5045765;28;20041;-67
2023/01/24 01:24:29;;;;;;;40.03;17.27;;;2.80;99.90;;;;;;5027840;28;20033;-66
2023/01/24 01:26:54;;;;;;;37.22;17.45;;;2.80;99.90;;;;;;5027191;28;20045;-67
2023/01/24 01:29:20;;;;;;;38.95;17.88;;;2.70;99.90;;;;;;5028059;28;20501;-66
2023/01/24 01:31:45;;;;;;;37.20;17.60;;;2.70;99.90;;;;;;5020739;28;20037;-66
2023/01/24 01:34:11;;;;;;;34.03;15.45;;;2.70;99.90;;;;;;5028073;28;20033;-66
2023/01/24 01:36:36;;;;;;;32.92;16.88;;;2.70;99.90;;;;;;5025155;28;20037;-66
2023/01/24 01:39:02;;;;;;;33.67;15.50;;;2.70;99.90;;;;;;5033112;28;20092;-66
2023/01/24 01:41:28;;;;;;;34.33;15.90;;;2.80;99.90;;;;;;5020986;28;20091;-67
2023/01/24 01:46:50;;;;;;;36.05;16.17;;;2.70;99.90;;;;;;5012924;28;20053;-67
2023/01/24 01:49:23;;;;;;;33.78;15.95;;;2.70;99.90;;;;;;5027385;28;20033;-66
2023/01/24 01:51:52;;;;;;;37.88;15.38;;;2.80;99.90;;;;;;5031874;28;21478;-67
2023/01/24 01:54:25;;;;;;;33.28;15.60;;;2.80;99.90;;;;;;5030571;28;20076;-67
2023/01/24 01:56:57;;;;;;;36.08;15.48;;;2.70;99.90;;;;;;5019830;28;20046;-66
2023/01/24 01:59:28;;;;;;;35.22;16.17;;;2.80;99.90;;;;;;4995099;28;20168;-67
2023/01/24 02:01:55;;;;;;;39.75;16.17;;;2.70;99.90;;;;;;5023869;28;20389;-66
2023/01/24 02:04:29;;;;;;;36.63;16.40;;;2.80;99.90;;;;;;5028274;28;20049;-66
2023/01/24 02:07:02;;;;;;;35.10;16.50;;;2.70;99.90;;;;;;5033438;28;20041;-66
2023/01/24 02:09:33;;;;;;;30.95;15.60;;;2.80;99.90;;;;;;5019382;28;20448;-66
2023/01/24 02:12:03;;;;;;;31.55;14.35;;;2.70;99.90;;;;;;5030567;28;20041;-66
2023/01/24 02:17:20;;;;;;;36.95;15.32;;;2.80;99.90;;;;;;5016998;28;20038;-66
2023/01/24 02:20:06;;;;;;;33.35;15.70;;;2.70;99.90;;;;;;5023587;28;20045;-67
2023/01/24 02:22:56;;;;;;;30.90;15.05;;;2.70;99.90;;;;;;5030271;28;20055;-66
2023/01/24 02:25:28;;;;;;;32.00;15.85;;;2.70;99.90;;;;;;5021133;28;20127;-66
2023/01/24 02:27:55;;;;;;;32.83;15.55;;;2.80;99.90;;;;;;5026947;28;20064;-66
2023/01/24 02:30:21;;;;;;;33.58;16.27;;;2.70;99.90;;;;;;5025063;28;20362;-66
2023/01/24 02:32:47;;;;;;;32.88;16.00;;;2.70;99.90;;;;;;5019126;28;20048;-66
2023/01/24 02:35:27;;;;;;;33.90;15.93;;;2.70;99.90;;;;;;5025164;28;20412;-67
2023/01/24 02:37:56;;;;;;;28.98;14.05;;;2.80;99.90;;;;;;5025774;28;20048;-67
2023/01/24 02:40:22;;;;;;;33.58;14.88;;;2.70;99.90;;;;;;5023493;28;20033;-66
2023/01/24 02:42:49;;;;;;;31.58;14.80;;;2.70;99.90;;;;;;5023753;28;20072;-67
2023/01/24 02:45:19;;;;;;;31.25;15.70;;;2.70;99.90;;;;;;5026128;28;20358;-66
2023/01/24 02:47:47;;;;;;;30.45;14.85;;;2.80;99.90;;;;;;5026204;28;20037;-66
2023/01/24 02:50:13;;;;;;;32.58;15.20;;;2.80;99.90;;;;;;5029312;28;20041;-67
2023/01/24 02:55:24;;;;;;;32.30;15.55;;;2.80;99.90;;;;;;5027493;28;20072;-66
2023/01/24 02:58:05;;;;;;;32.28;14.65;;;2.70;99.90;;;;;;5025371;28;20493;-66
2023/01/24 03:00:41;;;;;;;28.95;14.60;;;2.70;99.90;;;;;;5028220;28;20072;-67
2023/01/24 03:03:08;;;;;;;30.95;14.60;;;2.80;99.90;;;;;;5029231;28;20125;-66
2023/01/24 03:05:46;;;;;;;30.25;14.95;;;2.80;99.90;;;;;;5030030;28;20041;-67
2023/01/24 03:08:12;;;;;;;29.48;14.45;;;2.80;99.90;;;;;;5025483;28;20048;-66
2023/01/24 03:10:37;;;;;;;29.13;14.48;;;2.80;99.90;;;;;;5029603;28;20401;-66
2023/01/24 03:34:56;;;;;;;26.75;12.20;;;2.70;99.90;;;;;;5012038;28;20065;-66
2023/01/24 03:40:14;;;;;;;28.10;12.35;;;2.80;99.90;;;;;;5021533;28;20089;-66
2023/01/24 03:42:47;;;;;;;24.65;12.30;;;2.80;99.90;;;;;;5026879;28;20041;-66
2023/01/24 03:45:19;;;;;;;24.23;12.70;;;2.80;99.90;;;;;;5022177;28;20040;-66
2023/01/24 03:48:04;;;;;;;23.88;11.57;;;2.80;99.90;;;;;;5024908;28;20403;-67
2023/01/24 03:53:24;;;;;;;24.20;11.48;;;2.80;99.90;;;;;;5014265;28;20416;-66
2023/01/24 03:55:55;;;;;;;26.52;12.48;;;2.80;99.90;;;;;;5032221;28;20045;-67
2023/01/24 03:58:21;;;;;;;27.02;12.15;;;2.80;99.90;;;;;;5030220;28;20049;-67
2023/01/24 04:00:48;;;;;;;27.27;12.60;;;2.80;99.90;;;;;;5006041;28;20107;-66
2023/01/24 04:03:13;;;;;;;22.27;11.38;;;2.80;99.90;;;;;;5030785;28;20048;-66
2023/01/24 04:05:39;;;;;;;24.60;11.27;;;2.80;99.90;;;;;;5026461;28;20041;-67
2023/01/24 04:08:05;;;;;;;26.60;12.23;;;2.80;99.90;;;;;;5023074;28;20113;-66
2023/01/24 04:10:31;;;;;;;24.02;12.18;;;2.80;99.90;;;;;;5026641;28;20149;-65
2023/01/24 04:12:57;;;;;;;24.48;12.30;;;2.70;99.90;;;;;;5035251;28;20581;-66
2023/01/24 04:15:28;;;;;;;24.23;12.13;;;2.80;99.90;;;;;;5030869;28;20041;-66
2023/01/24 04:17:58;;;;;;;23.60;11.48;;;2.80;99.90;;;;;;5029628;28;20056;-66
2023/01/24 04:20:24;;;;;;;24.55;12.15;;;2.80;99.90;;;;;;5032123;28;20038;-66
2023/01/24 04:22:50;;;;;;;26.13;11.80;;;2.80;99.90;;;;;;5033405;28;20124;-66
2023/01/24 04:25:16;;;;;;;24.25;12.48;;;2.80;99.90;;;;;;5024998;28;20112;-66
2023/01/24 04:27:41;;;;;;;22.02;11.70;;;2.80;99.90;;;;;;5031544;28;20033;-66
2023/01/24 04:30:10;;;;;;;27.83;12.95;;;2.70;99.90;;;;;;5029173;28;20071;-66
2023/01/24 04:32:36;;;;;;;24.83;11.85;;;2.70;99.90;;;;;;5022682;28;20443;-66
2023/01/24 04:35:03;;;;;;;25.00;11.38;;;2.70;99.90;;;;;;5032338;28;20045;-66
2023/01/24 04:37:29;;;;;;;22.20;11.48;;;2.70;99.90;;;;;;5032556;28;20044;-66
2023/01/24 04:39:55;;;;;;;21.48;10.50;;;2.70;99.90;;;;;;5023813;28;20049;-66
2023/01/24 04:42:21;;;;;;;19.88;10.38;;;2.70;99.90;;;;;;5029239;28;20040;-66
2023/01/24 04:44:46;;;;;;;16.15;8.95;;;2.70;99.90;;;;;;5031040;28;20041;-68
2023/01/24 04:47:12;;;;;;;20.08;9.50;;;2.70;99.90;;;;;;5030358;28;20477;-67
2023/01/24 04:49:37;;;;;;;19.90;9.27;;;2.70;99.90;;;;;;5021011;28;20059;-66
2023/01/24 04:52:03;;;;;;;23.45;10.15;;;2.70;99.90;;;;;;5020905;28;20104;-66
2023/01/24 04:54:29;;;;;;;18.35;9.52;;;2.70;99.90;;;;;;5029125;28;20033;-67
2023/01/24 04:56:55;;;;;;;20.40;10.73;;;2.70;99.90;;;;;;5018020;28;20042;-67
2023/01/24 04:59:20;;;;;;;18.17;8.98;;;2.70;99.90;;;;;;5027872;28;20085;-66
2023/01/24 05:01:46;;;;;;;17.30;8.57;;;2.70;99.90;;;;;;5025334;28;20039;-67
2023/01/24 05:04:11;;;;;;;17.88;8.85;;;2.70;99.90;;;;;;5026034;28;20064;-66
2023/01/24 05:06:37;;;;;;;18.55;8.95;;;2.70;99.90;;;;;;5029891;28;20066;-66
2023/01/24 05:09:03;;;;;;;20.70;9.82;;;2.70;99.90;;;;;;5031252;28;20050;-67
2023/01/24 05:11:29;;;;;;;20.10;9.68;;;2.70;99.90;;;;;;5033088;28;20037;-67
2023/01/24 05:13:54;;;;;;;19.40;9.90;;;2.70;99.90;;;;;;5031673;28;20209;-67
2023/01/24 05:16:20;;;;;;;22.90;9.68;;;2.70;99.90;;;;;;5030401;28;20046;-67
2023/01/24 05:18:46;;;;;;;20.30;9.48;;;2.70;99.90;;;;;;5016358;28;20488;-66
2023/01/24 05:21:14;;;;;;;16.58;9.60;;;2.70;99.90;;;;;;5028418;28;20041;-67
2023/01/24 05:23:40;;;;;;;21.27;10.02;;;2.70;99.90;;;;;;5032026;28;20045;-67
2023/01/24 05:26:07;;;;;;;19.20;9.13;;;2.70;99.90;;;;;;5028174;28;20052;-66
2023/01/24 05:28:33;;;;;;;22.67;9.65;;;2.70;99.90;;;;;;5015674;28;20096;-66
2023/01/24 05:31:04;;;;;;;20.80;9.60;;;2.70;99.90;;;;;;5029422;28;20047;-68
2023/01/24 05:33:30;;;;;;;18.80;8.77;;;2.70;99.90;;;;;;5025679;28;20067;-67
2023/01/24 05:36:08;;;;;;;16.40;8.13;;;2.70;99.90;;;;;;5025424;28;20041;-66
2023/01/24 05:38:34;;;;;;;17.20;8.73;;;2.70;99.90;;;;;;5025336;28;20049;-67
2023/01/24 05:41:01;;;;;;;19.60;9.40;;;2.70;99.90;;;;;;5023401;28;20038;-66
2023/01/24 05:43:27;;;;;;;18.25;9.07;;;2.70;99.90;;;;;;5026226;28;20068;-66
2023/01/24 05:46:09;;;;;;;18.10;9.35;;;2.60;99.90;;;;;;5011679;28;20038;-67
2023/01/24 05:48:35;;;;;;;16.92;9.20;;;2.60;99.90;;;;;;5024840;28;20060;-67
2023/01/24 05:51:09;;;;;;;16.98;10.13;;;2.70;99.90;;;;;;5028937;28;20049;-67
2023/01/24 05:53:37;;;;;;;20.55;10.15;;;2.60;99.90;;;;;;5024511;28;20041;-67
2023/01/24 05:56:09;;;;;;;17.70;9.63;;;2.60;99.90;;;;;;5030059;28;20056;-67
2023/01/24 05:58:36;;;;;;;18.02;9.55;;;2.60;99.90;;;;;;5029309;28;20045;-66
2023/01/24 06:01:10;;;;;;;18.88;9.10;;;2.60;99.90;;;;;;5024568;28;20080;-67
2023/01/24 06:03:40;;;;;;;18.08;8.35;;;2.60;99.90;;;;;;5015126;28;20041;-67
2023/01/24 06:06:08;;;;;;;18.40;8.90;;;2.60;99.90;;;;;;5008517;28;20068;-67
2023/01/24 06:08:34;;;;;;;20.40;9.13;;;2.60;99.90;;;;;;5024265;28;20052;-68
2023/01/24 06:11:06;;;;;;;20.77;9.52;;;2.60;99.90;;;;;;5026547;28;20091;-68
2023/01/24 06:13:32;;;;;;;16.90;9.57;;;2.60;99.90;;;;;;5027155;28;20033;-67
2023/01/24 06:16:06;;;;;;;23.13;9.98;;;2.60;99.90;;;;;;5017066;28;20076;-67
2023/01/24 06:18:33;;;;;;;19.45;9.55;;;2.60;99.90;;;;;;5029116;28;20041;-67
2023/01/24 06:21:27;;;;;;;20.15;10.05;;;2.60;99.90;;;;;;5011985;28;20129;-66
2023/01/24 06:23:52;;;;;;;19.63;9.57;;;2.60;99.90;;;;;;5002919;28;20392;-67
2023/01/24 06:26:18;;;;;;;18.25;9.50;;;2.60;99.90;;;;;;5019649;28;20025;-66
2023/01/24 06:28:44;;;;;;;17.13;9.27;;;2.60;99.90;;;;;;5029292;28;20436;-66
2023/01/24 06:31:27;;;;;;;19.95;9.52;;;2.60;99.90;;;;;;5024694;28;20103;-66
2023/01/24 06:34:20;;;;;;;18.98;9.23;;;2.60;99.90;;;;;;5023062;28;20055;-67
2023/01/24 06:36:53;;;;;;;15.82;9.10;;;2.60;99.90;;;;;;5023553;28;20473;-67
2023/01/24 06:39:21;;;;;;;22.30;10.48;;;2.60;99.90;;;;;;5021841;28;20049;-66
2023/01/24 06:41:47;;;;;;;16.38;8.77;;;2.60;99.90;;;;;;5017752;28;20057;-67
2023/01/24 06:44:13;;;;;;;20.33;9.60;;;2.50;99.90;;;;;;5024046;28;20052;-66
2023/01/24 06:46:39;;;;;;;19.80;9.32;;;2.60;99.90;;;;;;5021289;28;20050;-67
2023/01/24 06:49:04;;;;;;;17.90;9.52;;;2.50;99.90;;;;;;5012608;28;20044;-66
2023/01/24 06:51:30;;;;;;;19.13;9.85;;;2.50;99.90;;;;;;5025904;28;20060;-66
2023/01/24 06:53:55;;;;;;;19.90;10.55;;;2.50;99.90;;;;;;5024014;28;20073;-66
2023/01/24 06:56:21;;;;;;;17.23;9.30;;;2.50;99.90;;;;;;5023502;28;20088;-66
2023/01/24 06:58:47;;;;;;;18.60;8.90;;;2.50;99.90;;;;;;5023197;28;20477;-67
2023/01/24 07:01:13;;;;;;;17.88;9.40;;;2.50;99.90;;;;;;5026466;28;20508;-67
2023/01/24 07:03:38;;;;;;;18.25;9.55;;;2.50;99.90;;;;;;5021662;28;20033;-66
2023/01/24 07:06:04;;;;;;;18.15;8.52;;;2.50;99.90;;;;;;5021244;28;20100;-67
2023/01/24 07:08:30;;;;;;;22.35;10.02;;;2.50;99.90;;;;;;5026565;28;20049;-67
2023/01/24 07:10:58;;;;;;;19.40;9.98;;;2.50;99.90;;;;;;5021690;28;20049;-66
2023/01/24 07:13:23;;;;;;;21.67;10.18;;;2.50;99.90;;;;;;5026623;28;20045;-66
2023/01/24 07:15:49;;;;;;;20.00;10.35;;;2.50;99.90;;;;;;5026862;28;20045;-67
2023/01/24 07:18:16;;;;;;;18.10;9.35;;;2.50;99.90;;;;;;5018595;28;20075;-67
2023/01/24 07:20:42;;;;;;;18.83;9.27;;;2.50;99.90;;;;;;5018890;28;20049;-66
2023/01/24 07:23:34;;;;;;;18.17;9.00;;;2.50;99.90;;;;;;5028917;28;20543;-67
2023/01/24 07:26:03;;;;;;;20.40;10.20;;;2.50;99.90;;;;;;5025489;28;20048;-67
2023/01/24 07:28:28;;;;;;;20.85;9.88;;;2.50;99.90;;;;;;5036358;28;20044;-67
2023/01/24 07:30:54;;;;;;;20.63;9.18;;;2.50;99.90;;;;;;5034785;28;20502;-66
2023/01/24 07:33:19;;;;;;;19.40;9.65;;;2.50;99.90;;;;;;5032831;28;20046;-66
2023/01/24 07:35:46;;;;;;;19.65;10.10;;;2.50;99.90;;;;;;5028067;28;20041;-67
2023/01/24 07:38:11;;;;;;;16.88;8.73;;;2.50;99.90;;;;;;5032146;28;20065;-67
2023/01/24 07:40:38;;;;;;;20.77;9.60;;;2.50;99.90;;;;;;5032366;28;20068;-67
2023/01/24 07:43:04;;;;;;;17.70;9.48;;;2.50;99.90;;;;;;5035146;28;20505;-66
2023/01/24 07:45:30;;;;;;;20.00;10.23;;;2.50;99.90;;;;;;5033112;28;20091;-67
2023/01/24 07:47:57;;;;;;;19.73;9.45;;;2.50;99.90;;;;;;5036201;28;20037;-66
2023/01/24 07:50:24;;;;;;;21.45;10.93;;;2.50;99.90;;;;;;5028389;28;20033;-66
2023/01/24 07:52:51;;;;;;;19.50;10.18;;;2.50;99.90;;;;;;5015648;28;20065;-66
2023/01/24 07:55:17;;;;;;;21.52;9.85;;;2.50;99.90;;;;;;5035151;28;20043;-66
2023/01/24 07:57:43;;;;;;;21.05;9.98;;;2.50;99.90;;;;;;5033500;28;20389;-66
2023/01/24 08:00:09;;;;;;;19.67;9.40;;;2.50;99.90;;;;;;5018973;28;20045;-66
2023/01/24 08:02:35;;;;;;;20.42;9.30;;;2.50;99.90;;;;;;5030347;28;20055;-66
2023/01/24 08:05:00;;;;;;;22.42;10.15;;;2.50;99.90;;;;;;5030931;28;20458;-66
2023/01/24 08:07:26;;;;;;;22.88;10.82;;;2.50;99.90;;;;;;5029137;28;20037;-66
2023/01/24 08:09:52;;;;;;;18.80;9.65;;;2.50;99.90;;;;;;5012971;28;20068;-66
2023/01/24 08:12:17;;;;;;;21.13;9.88;;;2.50;99.90;;;;;;5035002;28;20120;-66
2023/01/24 08:14:43;;;;;;;18.77;9.68;;;2.60;99.90;;;;;;5031371;28;20065;-67
2023/01/24 08:17:10;;;;;;;23.10;10.38;;;2.60;99.90;;;;;;5021961;28;20041;-67
2023/01/24 08:19:35;;;;;;;20.77;10.73;;;2.60;99.90;;;;;;5021715;28;20061;-66
2023/01/24 08:22:02;;;;;;;18.95;9.85;;;2.60;99.90;;;;;;5031760;28;20094;-66
2023/01/24 08:24:28;;;;;;;21.63;10.93;;;2.60;99.90;;;;;;5025688;28;20485;-67
2023/01/24 08:26:53;;;;;;;18.95;9.75;;;2.60;99.90;;;;;;5033189;28;20044;-69
2023/01/24 08:29:19;;;;;;;22.30;10.32;;;2.60;99.90;;;;;;5035437;28;20037;-66
2023/01/24 08:31:44;;;;;;;19.15;9.57;;;2.60;99.90;;;;;;5035940;28;20037;-67
2023/01/24 08:34:10;;;;;;;20.35;10.32;;;2.50;99.90;;;;;;5034475;28;20091;-67
2023/01/24 08:36:36;;;;;;;21.00;9.98;;;2.50;99.90;;;;;;5032285;28;20041;-67
2023/01/24 08:39:04;;;;;;;22.58;10.05;;;2.50;99.90;;;;;;5021670;28;20366;-67
2023/01/24 08:41:29;;;;;;;20.17;9.77;;;2.50;99.90;;;;;;5015329;28;20496;-66
2023/01/24 08:43:55;;;;;;;21.85;9.45;;;2.50;99.90;;;;;;5013089;28;20036;-68
2023/01/24 08:46:20;;;;;;;18.25;8.68;;;2.50;99.90;;;;;;5026158;28;20128;-67
2023/01/24 08:48:46;;;;;;;20.38;9.68;;;2.50;99.90;;;;;;5025364;28;20547;-66
2023/01/24 08:51:12;;;;;;;18.17;9.55;;;2.50;99.90;;;;;;5013821;28;20081;-67
2023/01/24 08:53:37;;;;;;;20.13;10.05;;;2.50;99.90;;;;;;5008432;28;20034;-66
2023/01/24 08:56:03;;;;;;;20.40;9.55;;;2.50;99.90;;;;;;5032626;28;20049;-67
2023/01/24 08:58:29;;;;;;;22.27;10.00;;;2.50;99.90;;;;;;5028557;28;20413;-67
2023/01/24 09:00:54;;;;;;;20.75;10.05;;;2.50;99.90;;;;;;5023811;28;20045;-66
2023/01/24 09:03:20;;;;;;;15.70;8.60;;;2.50;99.90;;;;;;5029781;28;20116;-66
2023/01/24 09:05:46;;;;;;;18.67;9.70;;;2.50;99.90;;;;;;5030682;28;20143;-66
2023/01/24 09:08:11;;;;;;;20.08;10.40;;;2.50;99.90;;;;;;5024906;28;20071;-66
2023/01/24 09:10:37;;;;;;;18.25;9.73;;;2.50;99.90;;;;;;5029508;28;20144;-67
2023/01/24 09:13:03;;;;;;;15.35;8.27;;;2.50;99.90;;;;;;5028390;28;20049;-67
2023/01/24 09:15:29;;;;;;;19.35;9.25;;;2.50;99.90;;;;;;5026243;28;20491;-68
2023/01/24 09:17:55;;;;;;;15.70;8.98;;;2.50;99.90;;;;;;5029458;28;20128;-66
2023/01/24 09:20:21;;;;;;;20.67;10.18;;;2.50;99.90;;;;;;5028714;28;20094;-67
2023/01/24 09:22:47;;;;;;;19.77;9.77;;;2.50;99.90;;;;;;5026419;28;20045;-67
2023/01/24 09:25:13;;;;;;;21.38;10.25;;;2.50;99.90;;;;;;5025539;28;20095;-66
2023/01/24 09:27:41;;;;;;;20.75;9.80;;;2.60;99.90;;;;;;5030970;28;20025;-67
2023/01/24 09:30:08;;;;;;;21.25;9.63;;;2.60;99.90;;;;;;5011407;28;20775;-66
2023/01/24 09:32:34;;;;;;;18.35;9.35;;;2.60;99.90;;;;;;5017968;28;20057;-67
2023/01/24 09:35:00;;;;;;;18.17;10.13;;;2.60;99.90;;;;;;5028367;28;20034;-66
2023/01/24 09:37:26;;;;;;;20.23;10.20;;;2.70;99.90;;;;;;5027869;28;20087;-66
2023/01/24 09:39:55;;;;;;;19.20;9.73;;;2.60;99.90;;;;;;5019610;28;20050;-66
2023/01/24 09:42:40;;;;;;;18.95;10.43;;;2.60;99.90;;;;;;5022392;28;20100;-66
2023/01/24 09:45:12;;;;;;;24.25;11.38;;;2.70;99.90;;;;;;5018313;28;20037;-66
2023/01/24 09:47:45;;;;;;;19.95;10.57;;;2.70;99.90;;;;;;5021571;28;20046;-67
2023/01/24 09:50:44;;;;;;;18.65;9.38;;;2.70;99.90;;;;;;5024830;28;20468;-66
2023/01/24 09:53:22;;;;;;;18.83;10.13;;;2.70;99.90;;;;;;5030096;28;20049;-66
2023/01/24 09:55:48;;;;;;;20.85;10.00;;;2.70;99.90;;;;;;5028478;28;20127;-68
2023/01/24 09:58:36;;;;;;;17.25;9.30;;;2.80;99.90;;;;;;5030940;28;20041;-67
2023/01/24 10:01:11;;;;;;;20.30;10.18;;;2.80;99.90;;;;;;5028638;28;20041;-68
2023/01/24 10:03:38;;;;;;;17.58;8.18;;;2.80;99.90;;;;;;5028933;28;20092;-68
2023/01/24 10:06:14;;;;;;;20.08;10.20;;;2.70;99.90;;;;;;5030709;28;20128;-66
2023/01/24 10:09:12;;;;;;;18.27;8.95;;;2.70;99.90;;;;;;5030923;28;20049;-66
2023/01/24 10:11:54;;;;;;;17.77;9.73;;;2.80;99.90;;;;;;5029007;28;20112;-66
2023/01/24 10:15:02;;;;;;;20.40;9.35;;;2.80;99.90;;;;;;5023991;28;20056;-66
2023/01/24 10:17:50;;;;;;;18.17;9.77;;;2.80;99.90;;;;;;5018854;28;20045;-65
2023/01/24 10:20:34;;;;;;;20.33;10.57;;;2.90;99.90;;;;;;4997142;28;20044;-66
2023/01/24 10:23:15;;;;;;;20.33;10.13;;;2.90;99.90;;;;;;5030207;28;20056;-67
2023/01/24 10:25:58;;;;;;;17.33;9.15;;;2.90;99.90;;;;;;5030198;28;20041;-66
2023/01/24 10:28:32;;;;;;;19.10;8.88;;;2.90;99.90;;;;;;5030141;28;20595;-66
2023/01/24 10:31:10;;;;;;;18.55;9.75;;;2.90;99.90;;;;;;5025053;28;20075;-66
2023/01/24 10:33:49;;;;;;;23.02;10.10;;;2.90;99.90;;;;;;5024248;28;20436;-66
2023/01/24 10:36:28;;;;;;;18.10;9.60;;;2.90;99.90;;;;;;5029416;28;20099;-69
2023/01/24 10:38:53;;;;;;;17.05;9.52;;;2.90;99.90;;;;;;5027758;28;20053;-66
2023/01/24 10:41:25;;;;;;;17.38;9.18;;;2.90;99.90;;;;;;5020730;28;20041;-66
2023/01/24 10:43:58;;;;;;;17.95;10.13;;;2.90;99.90;;;;;;5026993;28;20498;-66
2023/01/24 10:46:45;;;;;;;17.20;9.35;;;2.90;99.90;;;;;;5026613;28;20075;-65
2023/01/24 10:49:34;;;;;;;23.65;10.52;;;2.90;99.90;;;;;;5023035;28;20046;-67
2023/01/24 10:52:14;;;;;;;18.13;9.80;;;2.90;99.90;;;;;;5011210;28;20049;-66
2023/01/24 10:54:43;;;;;;;16.98;8.57;;;2.80;99.90;;;;;;5027047;28;20798;-67
2023/01/24 10:57:37;;;;;;;19.40;9.70;;;2.90;99.90;;;;;;5021917;28;20378;-66
2023/01/24 11:00:35;;;;;;;19.67;9.95;;;2.90;99.90;;;;;;5028090;28;20045;-67
2023/01/24 11:03:17;;;;;;;18.58;9.68;;;2.90;99.90;;;;;;5018423;28;20052;-66
2023/01/24 11:05:47;;;;;;;17.77;9.63;;;2.90;99.90;;;;;;5010762;28;20045;-66
2023/01/24 11:08:34;;;;;;;19.20;10.05;;;2.90;99.90;;;;;;5026837;28;20034;-66
2023/01/24 11:11:00;;;;;;;19.63;9.18;;;2.90;99.90;;;;;;5026741;28;20096;-66
2023/01/24 11:13:36;;;;;;;17.77;9.43;;;3.00;99.90;;;;;;5027142;28;20049;-67
2023/01/24 11:16:17;;;;;;;18.08;9.35;;;3.00;99.90;;;;;;5025061;28;20049;-66
2023/01/24 11:23:07;;;;;;;16.27;9.05;;;3.00;99.90;;;;;;5021929;28;20057;-66
2023/01/24 11:26:40;;;;;;;21.50;10.07;;;3.00;99.90;;;;;;5019246;28;20052;-66
2023/01/24 11:29:15;;;;;;;18.02;9.23;;;3.00;99.90;;;;;;4987687;28;20131;-66
2023/01/24 11:35:40;;;;;;;;;;;3.00;99.90;;;;;;5015796;28;20027;-67
2023/01/24 11:38:21;;;;;;;17.27;9.15;;;3.00;99.90;;;;;;5012483;28;20308;-66
2023/01/24 11:41:10;;;;;;;19.50;10.10;;;3.00;99.90;;;;;;5022484;28;20450;-68
2023/01/24 11:43:42;;;;;;;17.10;10.05;;;3.00;99.90;;;;;;5027941;28;20033;-68
2023/01/24 11:46:29;;;;;;;16.23;9.55;;;3.00;99.90;;;;;;5024442;28;20506;-66
2023/01/24 11:49:10;;;;;;;19.42;10.27;;;3.10;99.90;;;;;;5026936;28;20513;-67
2023/01/24 11:51:56;;;;;;;18.30;9.70;;;3.10;99.90;;;;;;5024599;28;20432;-68
2023/01/24 11:54:36;;;;;;;18.05;9.75;;;3.10;99.90;;;;;;5017171;28;20144;-67
2023/01/24 11:57:07;;;;;;;16.42;10.18;;;3.10;99.90;;;;;;5029514;28;20046;-67
2023/01/24 11:59:41;;;;;;;19.92;10.48;;;3.10;99.90;;;;;;5026724;28;20049;-67
2023/01/24 12:02:45;;;;;;;19.52;9.90;;;3.10;99.90;;;;;;5027092;28;20083;-67
2023/01/24 12:05:39;;;;;;;18.27;9.88;;;3.10;99.90;;;;;;5023646;28;20484;-66
2023/01/24 12:08:19;;;;;;;20.08;9.95;;;3.00;99.90;;;;;;5028114;28;20129;-66
2023/01/24 12:11:04;;;;;;;;;;;3.00;99.90;;;;;;5022862;28;20053;-66
2023/01/24 12:13:44;;;;;;;20.10;10.15;;;3.00;99.90;;;;;;5024348;28;19967;-67
2023/01/24 12:16:48;;;;;;;19.50;10.45;;;3.00;99.90;;;;;;5030517;28;20045;-66
2023/01/24 12:19:32;;;;;;;15.55;8.68;;;3.00;99.90;;;;;;5028094;28;20033;-66
2023/01/24 12:21:59;;;;;;;17.70;9.55;;;3.00;99.90;;;;;;5020248;28;20097;-67
2023/01/24 12:24:31;;;;;;;18.98;9.82;;;3.00;99.90;;;;;;5029496;28;20499;-66
2023/01/24 12:27:02;;;;;;;20.42;10.52;;;3.00;99.90;;;;;;5018380;28;20116;-66
2023/01/24 12:29:38;;;;;;;18.58;10.30;;;3.00;99.90;;;;;;5041620;28;20041;-66
2023/01/24 12:32:28;;;;;;;17.48;9.52;;;3.00;99.90;;;;;;5024734;28;20052;-67
2023/01/24 12:35:06;;;;;;;19.75;10.15;;;3.00;99.90;;;;;;5015949;28;20068;-66
2023/01/24 12:37:43;;;;;;;20.58;10.75;;;3.00;99.90;;;;;;5020148;28;20054;-66
2023/01/24 12:40:11;;;;;;;19.77;10.00;;;3.00;99.90;;;;;;5022933;28;20044;-66
2023/01/24 12:42:52;;;;;;;21.38;10.98;;;3.00;99.90;;;;;;5024184;28;20045;-67
2023/01/24 12:45:28;;;;;;;19.90;10.52;;;3.10;99.90;;;;;;5027397;28;20029;-66
2023/01/24 12:48:02;;;;;;;20.02;9.98;;;3.10;99.90;;;;;;5030034;28;20117;-67
2023/01/24 12:50:40;;;;;;;22.10;10.80;;;3.00;99.90;;;;;;5030972;28;20615;-67
2023/01/24 12:53:24;;;;;;;20.27;10.98;;;3.00;99.90;;;;;;5022896;28;20087;-67
2023/01/24 12:56:02;;;;;;;19.77;10.00;;;3.00;99.90;;;;;;5024971;28;20489;-67
2023/01/24 12:58:33;;;;;;;22.80;11.30;;;3.00;99.90;;;;;;5027109;28;20045;-68
2023/01/24 13:01:23;;;;;;;20.02;10.88;;;3.00;99.90;;;;;;5019235;28;20099;-68
2023/01/24 13:04:07;;;;;;;21.30;10.68;;;2.90;99.90;;;;;;5012387;28;20037;-66
2023/01/24 13:06:36;;;;;;;20.67;10.13;;;2.90;99.90;;;;;;5027246;28;20029;-67
2023/01/24 13:09:35;;;;;;;22.52;10.60;;;2.90;99.90;;;;;;5012194;28;20732;-66
2023/01/24 13:12:04;;;;;;;22.25;10.95;;;2.90;99.90;;;;;;4988172;28;20054;-66
2023/01/24 13:14:42;;;;;;;22.67;9.00;;;2.90;99.90;;;;;;4983884;28;20133;-67
2023/01/24 13:17:31;;;;;;;21.10;10.48;;;2.80;99.90;;;;;;5011971;28;20477;-66
2023/01/24 13:20:16;;;;;;;23.15;11.18;;;2.80;99.90;;;;;;5021980;28;20531;-68
2023/01/24 13:23:00;;;;;;;21.17;10.63;;;2.80;99.90;;;;;;5027030;28;20064;-68
2023/01/24 13:26:03;;;;;;;21.85;10.98;;;2.80;99.90;;;;;;5023932;28;20040;-67
2023/01/24 13:28:38;;;;;;;24.58;12.05;;;2.70;99.90;;;;;;5024315;28;20037;-67
2023/01/24 13:31:27;;;;;;;22.08;10.70;;;2.70;99.90;;;;;;5026676;28;20125;-66
2023/01/24 13:33:56;;;;;;;21.40;10.00;;;2.70;99.90;;;;;;5024129;28;20049;-67
2023/01/24 13:36:32;;;;;;;19.88;11.00;;;2.70;99.90;;;;;;5023557;28;20401;-66
2023/01/24 13:38:59;;;;;;;22.48;10.52;;;2.70;99.90;;;;;;5015961;28;20045;-67
2023/01/24 13:41:25;;;;;;;23.38;11.15;;;2.70;99.90;;;;;;5024550;28;20041;-66
2023/01/24 13:44:04;;;;;;;29.20;12.07;;;2.70;99.90;;;;;;5026405;28;20519;-66
2023/01/24 13:46:44;;;;;;;24.75;12.07;;;2.70;99.90;;;;;;5020920;28;20040;-66